Time;durP1;ratioP1;P1;durP2;ratioP2;P2;SDS_P1;SDS_P2;PMS_P1;PMS_P2;Temp;Humidity;BMP_temperature;BMP_pressure;BME280_temperature;BME280_humidity;BME280_pressure;Samples;Min_cycle;Max_cycle;Signal;HPM_P1;HPM_P2
2022/08/06 00:01:10;;;;;;;;;;;;;;;;;;5025086;28;20050;-57
2022/08/06 00:03:36;;;;;;;;;;;;;;;;;;5024907;28;19925;-58
2022/08/06 00:06:02;;;;;;;;;;;;;;;;;;5025399;28;20376;-57
2022/08/06 00:08:28;;;;;;;;;;;;;;;;;;5025135;28;20544;-57
2022/08/06 00:10:54;;;;;;;;;;;;;;;;;;5025795;28;20035;-57
2022/08/06 00:13:20;;;;;;;;;;;;;;;;;;5025288;28;19925;-57
2022/08/06 00:15:46;;;;;;;;;;;;;;;;;;5024953;28;20445;-57
2022/08/06 00:18:12;;;;;;;;;;;;;;;;;;5024343;28;19932;-58
2022/08/06 00:20:38;;;;;;;;;;;;;;;;;;5026020;28;19944;-57
2022/08/06 00:23:04;;;;;;;;;;;;;;;;;;5025671;28;20322;-57
2022/08/06 00:25:30;;;;;;;;;;;;;;;;;;5025418;28;19925;-57
2022/08/06 00:27:56;;;;;;;;;;;;;;;;;;5024609;28;19963;-57
2022/08/06 00:30:22;;;;;;;;;;;;;;;;;;5025277;28;19932;-57
2022/08/06 00:32:48;;;;;;;;;;;;;;;;;;5024334;28;19925;-57
2022/08/06 00:35:14;;;;;;;;;;;;;;;;;;5024433;28;20027;-57
2022/08/06 00:37:40;;;;;;;;;;;;;;;;;;5025100;28;20023;-58
2022/08/06 00:40:06;;;;;;;;;;;;;;;;;;5007280;28;20818;-57
2022/08/06 00:42:33;;;;;;;;;;;;;;;;;;5024061;28;19929;-57
2022/08/06 00:45:00;;;;;;;;;;;;;;;;;;5025169;28;20666;-59
2022/08/06 00:47:26;;;;;;;;;;;;;;;;;;5023845;28;20000;-57
2022/08/06 00:49:52;;;;;;;;;;;;;;;;;;5024564;28;20364;-57
2022/08/06 00:52:18;;;;;;;;;;;;;;;;;;5024435;28;19932;-57
2022/08/06 00:54:44;;;;;;;;;;;;;;;;;;5025162;28;19931;-57
2022/08/06 00:57:10;;;;;;;;;;;;;;;;;;5024391;28;19948;-57
2022/08/06 00:59:36;;;;;;;;;;;;;;;;;;5025193;28;19952;-57
2022/08/06 01:02:02;;;;;;;;;;;;;;;;;;5023513;28;19925;-57
2022/08/06 01:04:28;;;;;;;;;;;;;;;;;;5024013;28;19982;-57
2022/08/06 01:06:54;;;;;;;;;;;;;;;;;;5024472;28;20378;-58
2022/08/06 01:09:20;;;;;;;;;;;;;;;;;;5027521;22;20452;-59
2022/08/06 01:11:48;;;;;;;;;;;;;;;;;;5004004;28;21349;-59
2022/08/06 01:14:14;;;;;;;;;;;;;;;;;;5004392;28;19925;-56
2022/08/06 01:16:40;;;;;;;;;;;;;;;;;;5004640;28;19935;-59
2022/08/06 01:19:06;;;;;;;;;;;;;;;;;;5004692;28;19925;-58
2022/08/06 01:21:32;;;;;;;;;;;;;;;;;;5004639;28;19926;-58
2022/08/06 01:23:58;;;;;;;;;;;;;;;;;;5004950;28;19956;-58
2022/08/06 01:26:24;;;;;;;;;;;;;;;;;;5004026;28;20418;-59
2022/08/06 01:28:50;;;;;;;;;;;;;;;;;;5004929;28;19926;-58
2022/08/06 01:31:16;;;;;;;;;;;;;;;;;;5004222;28;19999;-58
2022/08/06 01:33:42;;;;;;;;;;;;;;;;;;5003582;28;20707;-59
2022/08/06 01:36:08;;;;;;;;;;;;;;;;;;5004805;28;19926;-58
2022/08/06 01:38:34;;;;;;;;;;;;;;;;;;5005007;28;19933;-58
2022/08/06 01:41:00;;;;;;;;;;;;;;;;;;5004343;28;19926;-59
2022/08/06 01:43:26;;;;;;;;;;;;;;;;;;5004512;28;19926;-59
2022/08/06 01:45:52;;;;;;;;;;;;;;;;;;5004518;28;20327;-59
2022/08/06 01:48:18;;;;;;;;;;;;;;;;;;5003296;28;19929;-59
2022/08/06 01:50:45;;;;;;;;;;;;;;;;;;5004531;28;20418;-59
2022/08/06 01:53:11;;;;;;;;;;;;;;;;;;5004345;28;19929;-59
2022/08/06 01:55:37;;;;;;;;;;;;;;;;;;5008344;28;20562;-58
2022/08/06 01:58:03;;;;;;;;;;;;;;;;;;5008382;28;19925;-59
2022/08/06 02:00:29;;;;;;;;;;;;;;;;;;5007356;28;19937;-59
2022/08/06 02:02:55;;;;;;;;;;;;;;;;;;5007847;28;20008;-58
2022/08/06 02:05:21;;;;;;;;;;;;;;;;;;5008181;28;19925;-59
2022/08/06 02:07:47;;;;;;;;;;;;;;;;;;5008383;28;19965;-59
2022/08/06 02:10:13;;;;;;;;;;;;;;;;;;5007704;28;20428;-59
2022/08/06 02:12:39;;;;;;;;;;;;;;;;;;5008274;28;19925;-60
2022/08/06 02:15:05;;;;;;;;;;;;;;;;;;5008391;28;20390;-59
2022/08/06 02:17:31;;;;;;;;;;;;;;;;;;5007429;28;20378;-58
2022/08/06 02:20:00;;;;;;;;;;;;;;;;;;5008084;28;20382;-59
2022/08/06 02:22:26;;;;;;;;;;;;;;;;;;5007356;28;20030;-59
2022/08/06 02:24:52;;;;;;;;;;;;;;;;;;5008231;28;20574;-58
2022/08/06 02:27:19;;;;;;;;;;;;;;;;;;5007604;28;19930;-58
2022/08/06 02:29:45;;;;;;;;;;;;;;;;;;5024300;28;19925;-59
2022/08/06 02:32:13;;;;;;;;;;;;;;;;;;5026699;28;19982;-59
2022/08/06 02:34:39;;;;;;;;;;;;;;;;;;5027307;28;19925;-60
2022/08/06 02:37:05;;;;;;;;;;;;;;;;;;5027794;28;19940;-58
2022/08/06 02:39:31;;;;;;;;;;;;;;;;;;5027397;28;20003;-58
2022/08/06 02:41:57;;;;;;;;;;;;;;;;;;5027223;28;20404;-59
2022/08/06 02:44:22;;;;;;;;;;;;;;;;;;5026960;28;19925;-59
2022/08/06 02:46:49;;;;;;;;;;;;;;;;;;5026283;28;19990;-59
2022/08/06 02:49:15;;;;;;;;;;;;;;;;;;5027313;28;19932;-59
2022/08/06 02:51:41;;;;;;;;;;;;;;;;;;5026501;28;19925;-59
2022/08/06 02:54:07;;;;;;;;;;;;;;;;;;5027678;28;19932;-59
2022/08/06 02:56:33;;;;;;;;;;;;;;;;;;5026192;28;19968;-58
2022/08/06 02:58:59;;;;;;;;;;;;;;;;;;5027023;28;19956;-59
2022/08/06 03:01:25;;;;;;;;;;;;;;;;;;5026333;28;20339;-59
2022/08/06 03:03:51;;;;;;;;;;;;;;;;;;5027303;28;19925;-59
2022/08/06 03:06:17;;;;;;;;;;;;;;;;;;5025989;28;19925;-59
2022/08/06 03:08:43;;;;;;;;;;;;;;;;;;5026379;28;19925;-58
2022/08/06 03:11:09;;;;;;;;;;;;;;;;;;5026519;28;19987;-59
2022/08/06 03:13:35;;;;;;;;;;;;;;;;;;5027076;28;19960;-58
2022/08/06 03:16:01;;;;;;;;;;;;;;;;;;5026746;28;19960;-58
2022/08/06 03:18:27;;;;;;;;;;;;;;;;;;5025837;28;20614;-58
2022/08/06 03:20:53;;;;;;;;;;;;;;;;;;5026215;28;19925;-58
2022/08/06 03:23:19;;;;;;;;;;;;;;;;;;5026666;28;19925;-59
2022/08/06 03:25:45;;;;;;;;;;;;;;;;;;5026633;28;20007;-59
2022/08/06 03:28:11;;;;;;;;;;;;;;;;;;5026279;28;20481;-58
2022/08/06 03:30:37;;;;;;;;;;;;;;;;;;5026951;28;20357;-58
2022/08/06 03:33:03;;;;;;;;;;;;;;;;;;5025516;28;20394;-58
2022/08/06 03:35:29;;;;;;;;;;;;;;;;;;5025974;28;19925;-59
2022/08/06 03:37:55;;;;;;;;;;;;;;;;;;5026314;28;19925;-58
2022/08/06 03:40:21;;;;;;;;;;;;;;;;;;5026098;28;19929;-59
2022/08/06 03:42:47;;;;;;;;;;;;;;;;;;5025859;28;20323;-58
2022/08/06 03:45:13;;;;;;;;;;;;;;;;;;5025915;28;19929;-59
2022/08/06 03:47:39;;;;;;;;;;;;;;;;;;5025719;28;19961;-60
2022/08/06 03:50:05;;;;;;;;;;;;;;;;;;5026543;28;20412;-59
2022/08/06 03:52:31;;;;;;;;;;;;;;;;;;5025874;28;19932;-59
2022/08/06 03:54:57;;;;;;;;;;;;;;;;;;5025420;28;19924;-58
2022/08/06 03:57:23;;;;;;;;;;;;;;;;;;5025595;28;20566;-59
2022/08/06 03:59:49;;;;;;;;;;;;;;;;;;5026008;28;19932;-59
2022/08/06 04:02:15;;;;;;;;;;;;;;;;;;5025203;28;19925;-58
2022/08/06 04:04:41;;;;;;;;;;;;;;;;;;5026142;28;20367;-59
2022/08/06 04:07:07;;;;;;;;;;;;;;;;;;5025500;28;19925;-59
2022/08/06 04:09:33;;;;;;;;;;;;;;;;;;5025381;28;20063;-58
2022/08/06 04:11:59;;;;;;;;;;;;;;;;;;5024888;28;19929;-58
2022/08/06 04:14:25;;;;;;;;;;;;;;;;;;5025610;28;20449;-59
2022/08/06 04:16:51;;;;;;;;;;;;;;;;;;5006688;28;20004;-58
2022/08/06 04:19:18;;;;;;;;;;;;;;;;;;5024069;28;20289;-59
2022/08/06 04:21:44;;;;;;;;;;;;;;;;;;5025631;28;20038;-59
2022/08/06 04:24:10;;;;;;;;;;;;;;;;;;5025147;28;20398;-59
2022/08/06 04:26:36;;;;;;;;;;;;;;;;;;5025706;28;19978;-58
2022/08/06 04:29:02;;;;;;;;;;;;;;;;;;5025070;28;19925;-58
2022/08/06 04:31:28;;;;;;;;;;;;;;;;;;5024194;28;19933;-59
2022/08/06 04:33:54;;;;;;;;;;;;;;;;;;5025317;28;19931;-58
2022/08/06 04:36:20;;;;;;;;;;;;;;;;;;5024885;28;19969;-59
2022/08/06 04:38:46;;;;;;;;;;;;;;;;;;5025147;28;20026;-59
2022/08/06 04:41:12;;;;;;;;;;;;;;;;;;5024230;28;19944;-59
2022/08/06 04:43:38;;;;;;;;;;;;;;;;;;5025694;28;19925;-58
2022/08/06 04:46:04;;;;;;;;;;;;;;;;;;5025462;28;19926;-59
2022/08/06 04:48:30;;;;;;;;;;;;;;;;;;5024181;28;19921;-59
2022/08/06 04:50:56;;;;;;;;;;;;;;;;;;5025128;28;20350;-58
2022/08/06 04:53:22;;;;;;;;;;;;;;;;;;5024250;28;19932;-59
2022/08/06 04:55:48;;;;;;;;;;;;;;;;;;5024969;28;19925;-59
2022/08/06 04:58:14;;;;;;;;;;;;;;;;;;5025038;28;19925;-58
2022/08/06 05:00:40;;;;;;;;;;;;;;;;;;5024876;28;20307;-59
2022/08/06 05:03:06;;;;;;;;;;;;;;;;;;5024788;28;19925;-58
2022/08/06 05:05:32;;;;;;;;;;;;;;;;;;5024036;28;19932;-58
2022/08/06 05:07:58;;;;;;;;;;;;;;;;;;5024740;28;20228;-59
2022/08/06 05:10:25;;;;;;;;;;;;;;;;;;5024014;28;20495;-58
2022/08/06 05:12:51;;;;;;;;;;;;;;;;;;5024593;28;20412;-57
2022/08/06 05:15:17;;;;;;;;;;;;;;;;;;5024298;28;19925;-58
2022/08/06 05:17:43;;;;;;;;;;;;;;;;;;5023834;28;19929;-58
2022/08/06 05:20:09;;;;;;;;;;;;;;;;;;5024045;28;20024;-59
2022/08/06 05:22:35;;;;;;;;;;;;;;;;;;5024882;28;19925;-58
2022/08/06 05:25:01;;;;;;;;;;;;;;;;;;5024399;28;19932;-59
2022/08/06 05:27:27;;;;;;;;;;;;;;;;;;5023713;28;19929;-59
2022/08/06 05:29:53;;;;;;;;;;;;;;;;;;5024338;28;19925;-59
2022/08/06 05:32:19;;;;;;;;;;;;;;;;;;5023511;28;19948;-59
2022/08/06 05:34:45;;;;;;;;;;;;;;;;;;5023713;28;20295;-58
2022/08/06 05:37:11;;;;;;;;;;;;;;;;;;5024133;28;19925;-59
2022/08/06 05:39:38;;;;;;;;;;;;;;;;;;5024184;28;19925;-58
2022/08/06 05:42:04;;;;;;;;;;;;;;;;;;5024641;28;19925;-58
2022/08/06 05:44:30;;;;;;;;;;;;;;;;;;5024001;28;19924;-58
2022/08/06 05:46:56;;;;;;;;;;;;;;;;;;5023588;28;19968;-59
2022/08/06 05:49:22;;;;;;;;;;;;;;;;;;5023717;28;19968;-59
2022/08/06 05:51:48;;;;;;;;;;;;;;;;;;5023643;28;19929;-59
2022/08/06 05:54:14;;;;;;;;;;;;;;;;;;5023932;28;19972;-59
2022/08/06 05:56:40;;;;;;;;;;;;;;;;;;5024272;28;19961;-60
2022/08/06 05:59:06;;;;;;;;;;;;;;;;;;5024341;28;19926;-59
2022/08/06 06:01:32;;;;;;;;;;;;;;;;;;5023062;28;19924;-59
2022/08/06 06:03:58;;;;;;;;;;;;;;;;;;5023669;28;19925;-59
2022/08/06 06:06:24;;;;;;;;;;;;;;;;;;5023384;28;19934;-60
2022/08/06 06:08:50;;;;;;;;;;;;;;;;;;5023513;28;20268;-60
2022/08/06 06:11:16;;;;;;;;;;;;;;;;;;5023999;28;19979;-60
2022/08/06 06:13:42;;;;;;;;;;;;;;;;;;5023161;28;20294;-59
2022/08/06 06:16:08;;;;;;;;;;;;;;;;;;5023650;28;20327;-60
2022/08/06 06:18:36;;;;;;;;;;;;;;;;;;5024413;28;19976;-59
2022/08/06 06:21:02;;;;;;;;;;;;;;;;;;5023755;28;20007;-60
2022/08/06 06:23:28;;;;;;;;;;;;;;;;;;5023671;28;19968;-59
2022/08/06 06:25:54;;;;;;;;;;;;;;;;;;5023692;28;20323;-61
2022/08/06 06:28:20;;;;;;;;;;;;;;;;;;5023533;28;19917;-59
2022/08/06 06:30:46;;;;;;;;;;;;;;;;;;5024263;28;19935;-59
2022/08/06 06:33:14;;;;;;;;;;;;;;;;;;5022691;28;20387;-59
2022/08/06 06:35:40;;;;;;;;;;;;;;;;;;5023018;28;19925;-60
2022/08/06 06:38:06;;;;;;;;;;;;;;;;;;5023444;28;19932;-59
2022/08/06 06:40:32;;;;;;;;;;;;;;;;;;5023558;28;19987;-60
2022/08/06 06:42:58;;;;;;;;;;;;;;;;;;5027377;28;20457;-60
2022/08/06 06:45:24;;;;;;;;;;;;;;;;;;5027079;28;20023;-60
2022/08/06 06:47:50;;;;;;;;;;;;;;;;;;5026250;28;20012;-60
2022/08/06 06:50:16;;;;;;;;;;;;;;;;;;5026976;28;19992;-60
2022/08/06 06:52:42;;;;;;;;;;;;;;;;;;5027362;28;19937;-60
2022/08/06 06:55:08;;;;;;;;;;;;;;;;;;5027770;28;19933;-60
2022/08/06 06:57:34;;;;;;;;;;;;;;;;;;5027582;28;19975;-59
2022/08/06 07:00:00;;;;;;;;;;;;;;;;;;5026654;28;19925;-59
2022/08/06 07:02:28;;;;;;;;;;;;;;;;;;5026406;28;20592;-59
2022/08/06 07:04:54;;;;;;;;;;;;;;;;;;5026911;28;19921;-59
2022/08/06 07:07:20;;;;;;;;;;;;;;;;;;5026853;28;19956;-60
2022/08/06 07:09:47;;;;;;;;;;;;;;;;;;5026630;28;19979;-59
2022/08/06 07:12:13;;;;;;;;;;;;;;;;;;5026227;28;20371;-59
2022/08/06 07:14:39;;;;;;;;;;;;;;;;;;5026703;28;19926;-60
2022/08/06 07:17:05;;;;;;;;;;;;;;;;;;5026500;28;20185;-59
2022/08/06 07:19:31;;;;;;;;;;;;;;;;;;5026638;28;19932;-59
2022/08/06 07:21:57;;;;;;;;;;;;;;;;;;5026595;28;19928;-59
2022/08/06 07:24:23;;;;;;;;;;;;;;;;;;5008489;28;20386;-59
2022/08/06 07:26:49;;;;;;;;;;;;;;;;;;5026675;28;19925;-59
2022/08/06 07:29:15;;;;;;;;;;;;;;;;;;5026195;28;19922;-59
2022/08/06 07:31:41;;;;;;;;;;;;;;;;;;5025588;28;20154;-59
2022/08/06 07:34:07;;;;;;;;;;;;;;;;;;5026070;28;20389;-59
2022/08/06 07:36:33;;;;;;;;;;;;;;;;;;5026019;28;20087;-60
2022/08/06 07:38:59;;;;;;;;;;;;;;;;;;5026498;28;20048;-59
2022/08/06 07:41:25;;;;;;;;;;;;;;;;;;5025907;28;19934;-58
2022/08/06 07:43:51;;;;;;;;;;;;;;;;;;5026306;28;19929;-59
2022/08/06 07:46:17;;;;;;;;;;;;;;;;;;5006882;28;20394;-59
2022/08/06 07:48:43;;;;;;;;;;;;;;;;;;5008488;28;19937;-60
2022/08/06 07:51:09;;;;;;;;;;;;;;;;;;5025600;28;19932;-60
2022/08/06 07:53:35;;;;;;;;;;;;;;;;;;5026351;28;19933;-60
2022/08/06 07:56:01;;;;;;;;;;;;;;;;;;5025774;28;19929;-59
2022/08/06 07:58:27;;;;;;;;;;;;;;;;;;5025432;28;19960;-59
2022/08/06 08:00:54;;;;;;;;;;;;;;;;;;5024951;28;19925;-60
2022/08/06 08:06:17;;;;;;;;;;;;;;;;;;5025779;28;20401;-60
2022/08/06 08:08:43;;;;;;;;;;;;;;;;;;5025637;28;20290;-60
2022/08/06 08:11:09;;;;;;;;;;;;;;;;;;5025419;28;19925;-60
2022/08/06 08:13:35;;;;;;;;;;;;;;;;;;5026316;28;19968;-59
2022/08/06 08:16:01;;;;;;;;;;;;;;;;;;5024515;28;19921;-59
2022/08/06 08:18:27;;;;;;;;;;;;;;;;;;5025903;28;19924;-59
2022/08/06 08:20:53;;;;;;;;;;;;;;;;;;5025568;28;19974;-59
2022/08/06 08:23:19;;;;;;;;;;;;;;;;;;5025498;28;19933;-59
2022/08/06 08:25:45;;;;;;;;;;;;;;;;;;5025391;28;19987;-62
2022/08/06 08:28:12;;;;;;;;;;;;;;;;;;5007021;28;20395;-61
2022/08/06 08:30:39;;;;;;;;;;;;;;;;;;5025405;28;19925;-61
2022/08/06 08:33:05;;;;;;;;;;;;;;;;;;5025861;28;19924;-61
2022/08/06 08:35:31;;;;;;;;;;;;;;;;;;5024828;28;19925;-63
2022/08/06 08:37:57;;;;;;;;;;;;;;;;;;5025438;28;19925;-59
2022/08/06 08:40:23;;;;;;;;;;;;;;;;;;5024456;28;19925;-58
2022/08/06 08:42:53;;;;;;;;;;;;;;;;;;5025163;28;19947;-60
2022/08/06 08:45:19;;;;;;;;;;;;;;;;;;5025193;28;19948;-60
2022/08/06 08:47:45;;;;;;;;;;;;;;;;;;5024764;28;19932;-58
2022/08/06 08:50:11;;;;;;;;;;;;;;;;;;5024276;28;19931;-59
2022/08/06 08:52:37;;;;;;;;;;;;;;;;;;5025609;28;19925;-61
2022/08/06 08:55:03;;;;;;;;;;;;;;;;;;5024885;28;19932;-60
2022/08/06 08:57:29;;;;;;;;;;;;;;;;;;5025002;28;19929;-60
2022/08/06 08:59:55;;;;;;;;;;;;;;;;;;5024846;28;19925;-60
2022/08/06 09:02:23;;;;;;;;;;;;;;;;;;5023615;28;19925;-60
2022/08/06 09:04:49;;;;;;;;;;;;;;;;;;5024173;28;19927;-61
2022/08/06 09:07:15;;;;;;;;;;;;;;;;;;5024518;28;19925;-60
2022/08/06 09:09:41;;;;;;;;;;;;;;;;;;5023842;28;19925;-60
2022/08/06 09:12:07;;;;;;;;;;;;;;;;;;5024496;28;19925;-60
2022/08/06 09:14:33;;;;;;;;;;;;;;;;;;5023907;28;20053;-59
2022/08/06 09:16:59;;;;;;;;;;;;;;;;;;5023731;28;20471;-61
2022/08/06 09:19:28;;;;;;;;;;;;;;;;;;5024335;28;19971;-61
2022/08/06 09:21:54;;;;;;;;;;;;;;;;;;5023820;28;20012;-61
2022/08/06 09:24:20;;;;;;;;;;;;;;;;;;5023740;28;20430;-59
2022/08/06 09:26:46;;;;;;;;;;;;;;;;;;5006254;28;19931;-58
2022/08/06 09:29:12;;;;;;;;;;;;;;;;;;5024011;28;19927;-61
2022/08/06 09:31:38;;;;;;;;;;;;;;;;;;5024072;28;20302;-62
2022/08/06 09:34:04;;;;;;;;;;;;;;;;;;5024336;28;19921;-61
2022/08/06 09:36:30;;;;;;;;;;;;;;;;;;5023368;28;19956;-61
2022/08/06 09:38:57;;;;;;;;;;;;;;;;;;5024268;28;20015;-60
2022/08/06 09:41:23;;;;;;;;;;;;;;;;;;5024223;28;20006;-60
2022/08/06 09:43:49;;;;;;;;;;;;;;;;;;5024496;28;19929;-61
2022/08/06 09:46:15;;;;;;;;;;;;;;;;;;5023424;28;19925;-61
2022/08/06 09:48:42;;;;;;;;;;;;;;;;;;5023410;28;19925;-61
2022/08/06 09:51:09;;;;;;;;;;;;;;;;;;5024457;28;19925;-61
2022/08/06 09:53:35;;;;;;;;;;;;;;;;;;5024356;28;19933;-61
2022/08/06 09:56:01;;;;;;;;;;;;;;;;;;5024197;28;19926;-58
2022/08/06 09:58:27;;;;;;;;;;;;;;;;;;5023999;28;19978;-58
2022/08/06 10:00:53;;;;;;;;;;;;;;;;;;5022931;28;19925;-58
2022/08/06 10:03:19;;;;;;;;;;;;;;;;;;5023809;28;20094;-58
2022/08/06 10:05:45;;;;;;;;;;;;;;;;;;5024109;28;20549;-58
2022/08/06 10:08:11;;;;;;;;;;;;;;;;;;5023687;28;19925;-58
2022/08/06 10:10:37;;;;;;;;;;;;;;;;;;5024232;28;19925;-57
2022/08/06 10:13:03;;;;;;;;;;;;;;;;;;5006075;28;19979;-58
2022/08/06 10:15:29;;;;;;;;;;;;;;;;;;5023087;28;19929;-58
2022/08/06 10:17:55;;;;;;;;;;;;;;;;;;5027802;28;19932;-58
2022/08/06 10:20:22;;;;;;;;;;;;;;;;;;5028184;28;20322;-58
2022/08/06 10:22:48;;;;;;;;;;;;;;;;;;5027142;28;19943;-58
2022/08/06 10:25:14;;;;;;;;;;;;;;;;;;5027793;28;20589;-58
2022/08/06 10:27:40;;;;;;;;;;;;;;;;;;5027725;28;19933;-57
2022/08/06 10:30:06;;;;;;;;;;;;;;;;;;5028070;28;19928;-58
2022/08/06 10:32:32;;;;;;;;;;;;;;;;;;5026622;28;19931;-57
2022/08/06 10:34:58;;;;;;;;;;;;;;;;;;5026785;28;20012;-58
2022/08/06 10:37:24;;;;;;;;;;;;;;;;;;5026917;28;20453;-58
2022/08/06 10:39:50;;;;;;;;;;;;;;;;;;5027785;28;20028;-58
2022/08/06 10:42:16;;;;;;;;;;;;;;;;;;5027302;28;19931;-58
2022/08/06 10:44:42;;;;;;;;;;;;;;;;;;5027626;28;19933;-58
2022/08/06 10:47:08;;;;;;;;;;;;;;;;;;5026202;28;19925;-58
2022/08/06 10:49:34;;;;;;;;;;;;;;;;;;5027762;28;19932;-58
2022/08/06 10:52:00;;;;;;;;;;;;;;;;;;5027485;28;20291;-58
2022/08/06 10:54:26;;;;;;;;;;;;;;;;;;5027513;28;19925;-58
2022/08/06 10:56:53;;;;;;;;;;;;;;;;;;5027099;28;19925;-58
2022/08/06 10:59:19;;;;;;;;;;;;;;;;;;5027267;28;19932;-58
2022/08/06 11:01:45;;;;;;;;;;;;;;;;;;5026413;28;20366;-58
2022/08/06 11:04:11;;;;;;;;;;;;;;;;;;5027196;28;20362;-58
2022/08/06 11:06:37;;;;;;;;;;;;;;;;;;5027630;28;19925;-58
2022/08/06 11:09:03;;;;;;;;;;;;;;;;;;5026740;28;19925;-57
2022/08/06 11:11:29;;;;;;;;;;;;;;;;;;5008850;28;20639;-58
2022/08/06 11:13:55;;;;;;;;;;;;;;;;;;5027075;28;19921;-58
2022/08/06 11:16:21;;;;;;;;;;;;;;;;;;5025850;28;19925;-57
2022/08/06 11:18:47;;;;;;;;;;;;;;;;;;5026724;28;19925;-58
2022/08/06 11:21:13;;;;;;;;;;;;;;;;;;5026166;28;20521;-58
2022/08/06 11:23:39;;;;;;;;;;;;;;;;;;5026940;28;20452;-58
2022/08/06 11:26:05;;;;;;;;;;;;;;;;;;5027098;28;19964;-58
2022/08/06 11:28:31;;;;;;;;;;;;;;;;;;5026145;28;20015;-58
2022/08/06 11:30:57;;;;;;;;;;;;;;;;;;5026042;28;20021;-58
2022/08/06 11:33:23;;;;;;;;;;;;;;;;;;5025769;28;20405;-58
2022/08/06 11:35:49;;;;;;;;;;;;;;;;;;5008550;28;19932;-58
2022/08/06 11:38:15;;;;;;;;;;;;;;;;;;5026202;28;20015;-58
2022/08/06 11:40:41;;;;;;;;;;;;;;;;;;5026585;28;20434;-58
2022/08/06 11:43:07;;;;;;;;;;;;;;;;;;5026516;28;19928;-58
2022/08/06 11:45:33;;;;;;;;;;;;;;;;;;5025595;28;19953;-58
2022/08/06 11:47:59;;;;;;;;;;;;;;;;;;5025921;28;19925;-58
2022/08/06 11:50:25;;;;;;;;;;;;;;;;;;5026355;28;19924;-58
2022/08/06 11:52:51;;;;;;;;;;;;;;;;;;5026231;28;19932;-58
2022/08/06 11:55:18;;;;;;;;;;;;;;;;;;5025584;28;19920;-58
2022/08/06 11:57:44;;;;;;;;;;;;;;;;;;5025931;28;19925;-58
2022/08/06 12:00:13;;;;;;;;;;;;;;;;;;5025095;28;19939;-58
2022/08/06 12:02:39;;;;;;;;;;;;;;;;;;5025920;28;19979;-59
2022/08/06 12:05:05;;;;;;;;;;;;;;;;;;5026231;28;20485;-57
2022/08/06 12:07:32;;;;;;;;;;;;;;;;;;5025216;28;19933;-58
2022/08/06 12:09:59;;;;;;;;;;;;;;;;;;5025587;28;19928;-57
2022/08/06 12:12:32;;;;;;;;;;;;;;;;;;5025757;28;19947;-60
2022/08/06 12:14:58;;;;;;;;;;;;;;;;;;5025320;28;19925;-61
2022/08/06 12:17:24;;;;;;;;;;;;;;;;;;5025064;28;19925;-60
2022/08/06 12:19:50;;;;;;;;;;;;;;;;;;5025827;28;20020;-60
2022/08/06 12:22:16;;;;;;;;;;;;;;;;;;5025403;28;19970;-60
2022/08/06 12:24:42;;;;;;;;;;;;;;;;;;5025649;28;20419;-61
2022/08/06 12:27:08;;;;;;;;;;;;;;;;;;5025240;28;19979;-60
2022/08/06 12:29:34;;;;;;;;;;;;;;;;;;5026123;28;19925;-60
2022/08/06 12:32:00;;;;;;;;;;;;;;;;;;5024172;28;20059;-60
2022/08/06 12:34:27;;;;;;;;;;;;;;;;;;5025034;28;20341;-60
2022/08/06 12:36:53;;;;;;;;;;;;;;;;;;5025167;28;19932;-60
2022/08/06 12:39:19;;;;;;;;;;;;;;;;;;5024019;28;19925;-60
2022/08/06 12:41:45;;;;;;;;;;;;;;;;;;5025111;28;20267;-60
2022/08/06 12:44:11;;;;;;;;;;;;;;;;;;5025119;28;20374;-61
2022/08/06 12:46:37;;;;;;;;;;;;;;;;;;5024563;28;19929;-61
2022/08/06 12:49:03;;;;;;;;;;;;;;;;;;5025409;28;20385;-60
2022/08/06 12:51:29;;;;;;;;;;;;;;;;;;5024203;28;20027;-60
2022/08/06 12:53:55;;;;;;;;;;;;;;;;;;5025372;28;19925;-60
2022/08/06 12:56:22;;;;;;;;;;;;;;;;;;5024492;28;20020;-60
2022/08/06 12:58:48;;;;;;;;;;;;;;;;;;5024858;28;19928;-60
2022/08/06 13:01:14;;;;;;;;;;;;;;;;;;5039144;28;20015;-60
2022/08/06 13:03:41;;;;;;;;;;;;;;;;;;5006750;28;19983;-61
2022/08/06 13:06:07;;;;;;;;;;;;;;;;;;5025223;28;20004;-60
2022/08/06 13:08:33;;;;;;;;;;;;;;;;;;5006282;28;20036;-60
2022/08/06 13:10:59;;;;;;;;;;;;;;;;;;5024852;28;20015;-60
2022/08/06 13:13:25;;;;;;;;;;;;;;;;;;5023569;28;19921;-60
2022/08/06 13:15:51;;;;;;;;;;;;;;;;;;5024257;28;20314;-60
2022/08/06 13:18:17;;;;;;;;;;;;;;;;;;5024309;28;19925;-60
2022/08/06 13:20:43;;;;;;;;;;;;;;;;;;5024678;28;19925;-61
2022/08/06 13:23:09;;;;;;;;;;;;;;;;;;5024311;28;20468;-61
2022/08/06 13:25:35;;;;;;;;;;;;;;;;;;5024075;28;20024;-60
2022/08/06 13:28:01;;;;;;;;;;;;;;;;;;5024261;28;20032;-60
2022/08/06 13:30:27;;;;;;;;;;;;;;;;;;5023521;28;19979;-60
2022/08/06 13:32:53;;;;;;;;;;;;;;;;;;5024706;28;20449;-60
2022/08/06 13:35:19;;;;;;;;;;;;;;;;;;5023601;28;20015;-60
2022/08/06 13:37:47;;;;;;;;;;;;;;;;;;5024229;28;19925;-60
2022/08/06 13:40:13;;;;;;;;;;;;;;;;;;5006436;28;19925;-61
2022/08/06 13:42:39;;;;;;;;;;;;;;;;;;5024120;28;19932;-61
2022/08/06 13:45:05;;;;;;;;;;;;;;;;;;5023908;28;20394;-60
2022/08/06 13:47:31;;;;;;;;;;;;;;;;;;5023482;28;19925;-60
2022/08/06 13:49:57;;;;;;;;;;;;;;;;;;5024930;28;20314;-59
2022/08/06 13:52:23;;;;;;;;;;;;;;;;;;5010221;28;20374;-61
2022/08/06 13:54:49;;;;;;;;;;;;;;;;;;5028327;28;19936;-61
2022/08/06 13:57:16;;;;;;;;;;;;;;;;;;5009959;28;19925;-61
2022/08/06 13:59:42;;;;;;;;;;;;;;;;;;5027222;28;20016;-61
2022/08/06 14:02:08;;;;;;;;;;;;;;;;;;5028521;28;19925;-60
2022/08/06 14:04:34;;;;;;;;;;;;;;;;;;5028676;28;19925;-60
2022/08/06 14:07:00;;;;;;;;;;;;;;;;;;5027809;28;19925;-59
2022/08/06 14:09:26;;;;;;;;;;;;;;;;;;5027488;28;19925;-60
2022/08/06 14:11:52;;;;;;;;;;;;;;;;;;5027592;28;19932;-60
2022/08/06 14:14:19;;;;;;;;;;;;;;;;;;5028018;28;20378;-60
2022/08/06 14:16:45;;;;;;;;;;;;;;;;;;5026796;28;19925;-60
2022/08/06 14:19:11;;;;;;;;;;;;;;;;;;5027918;28;20018;-60
2022/08/06 14:21:37;;;;;;;;;;;;;;;;;;5027442;28;20426;-60
2022/08/06 14:24:03;;;;;;;;;;;;;;;;;;5027936;28;19925;-60
2022/08/06 14:26:29;;;;;;;;;;;;;;;;;;5027459;28;19929;-60
2022/08/06 14:28:56;;;;;;;;;;;;;;;;;;5027918;28;20390;-59
2022/08/06 14:31:22;;;;;;;;;;;;;;;;;;5026909;28;20020;-59
2022/08/06 14:33:48;;;;;;;;;;;;;;;;;;5027286;28;19925;-59
2022/08/06 14:36:14;;;;;;;;;;;;;;;;;;5027028;28;20023;-59
2022/08/06 14:38:40;;;;;;;;;;;;;;;;;;5027547;28;20020;-59
2022/08/06 14:46:36;;;;;;;;;;;;;;;;;;5026845;28;20379;-59
2022/08/06 14:49:02;;;;;;;;;;;;;;;;;;5027412;28;19948;-59
2022/08/06 14:51:28;;;;;;;;;;;;;;;;;;5026381;28;19971;-59
2022/08/06 14:53:54;;;;;;;;;;;;;;;;;;5027498;28;19929;-60
2022/08/06 14:56:20;;;;;;;;;;;;;;;;;;5026959;28;19925;-59
2022/08/06 14:58:46;;;;;;;;;;;;;;;;;;5027317;28;20647;-60
2022/08/06 15:01:12;;;;;;;;;;;;;;;;;;5025451;28;19971;-59
2022/08/06 15:03:38;;;;;;;;;;;;;;;;;;5009305;28;19928;-59
2022/08/06 15:06:04;;;;;;;;;;;;;;;;;;5027122;28;19925;-60
2022/08/06 15:08:30;;;;;;;;;;;;;;;;;;5026654;28;19990;-59
2022/08/06 15:10:56;;;;;;;;;;;;;;;;;;5027047;28;19928;-59
2022/08/06 15:13:22;;;;;;;;;;;;;;;;;;5025974;28;19964;-59
2022/08/06 15:15:48;;;;;;;;;;;;;;;;;;5014928;28;19961;-60
2022/08/06 15:18:14;;;;;;;;;;;;;;;;;;5014370;28;19929;-60
2022/08/06 15:20:41;;;;;;;;;;;;;;;;;;5012066;28;19984;-59
2022/08/06 15:23:06;;;;;;;;;;;;;;;;;;5016267;28;19933;-59
2022/08/06 15:25:33;;;;;;;;;;;;;;;;;;5019239;28;19925;-59
2022/08/06 15:27:59;;;;;;;;;;;;;;;;;;5019231;28;20244;-59
2022/08/06 15:30:25;;;;;;;;;;;;;;;;;;5016525;28;20016;-59
2022/08/06 15:32:51;;;;;;;;;;;;;;;;;;5021082;28;19925;-59
2022/08/06 15:35:17;;;;;;;;;;;;;;;;;;5016696;28;19925;-59
2022/08/06 15:37:43;;;;;;;;;;;;;;;;;;5014133;28;20028;-59
2022/08/06 15:40:09;;;;;;;;;;;;;;;;;;5014336;28;20426;-60
2022/08/06 15:42:35;;;;;;;;;;;;;;;;;;5019504;28;19928;-59
2022/08/06 15:45:01;;;;;;;;;;;;;;;;;;5014921;28;19925;-60
2022/08/06 15:47:27;;;;;;;;;;;;;;;;;;5016473;28;19925;-60
2022/08/06 15:49:53;;;;;;;;;;;;;;;;;;5016047;28;19929;-58
2022/08/06 15:52:19;;;;;;;;;;;;;;;;;;5013067;28;19925;-59
2022/08/06 15:54:45;;;;;;;;;;;;;;;;;;5012833;28;20471;-59
2022/08/06 15:57:12;;;;;;;;;;;;;;;;;;5014530;28;19930;-58
2022/08/06 15:59:38;;;;;;;;;;;;;;;;;;5018238;28;19987;-59
2022/08/06 16:02:04;;;;;;;;;;;;;;;;;;5010621;28;19995;-60
2022/08/06 16:04:30;;;;;;;;;;;;;;;;;;5018371;28;19969;-60
2022/08/06 16:06:56;;;;;;;;;;;;;;;;;;5016501;28;19925;-60
2022/08/06 16:09:22;;;;;;;;;;;;;;;;;;5011643;28;19929;-59
2022/08/06 16:11:48;;;;;;;;;;;;;;;;;;5011961;28;20477;-61
2022/08/06 16:14:14;;;;;;;;;;;;;;;;;;5015377;28;19944;-60
2022/08/06 16:16:40;;;;;;;;;;;;;;;;;;5012052;28;19925;-61
2022/08/06 16:19:06;;;;;;;;;;;;;;;;;;5013113;28;19929;-60
2022/08/06 16:21:33;;;;;;;;;;;;;;;;;;5012320;28;19932;-60
2022/08/06 16:23:59;;;;;;;;;;;;;;;;;;5016090;28;20417;-60
2022/08/06 16:26:25;;;;;;;;;;;;;;;;;;5013519;28;19964;-60
2022/08/06 16:28:51;;;;;;;;;;;;;;;;;;5014007;28;19984;-60
2022/08/06 16:31:17;;;;;;;;;;;;;;;;;;5016867;28;19965;-60
2022/08/06 16:33:43;;;;;;;;;;;;;;;;;;5016368;28;19936;-60
2022/08/06 16:36:09;;;;;;;;;;;;;;;;;;5018782;28;19987;-60
2022/08/06 16:38:35;;;;;;;;;;;;;;;;;;5014918;28;19925;-60
2022/08/06 16:41:01;;;;;;;;;;;;;;;;;;5011921;28;19973;-60
2022/08/06 16:43:27;;;;;;;;;;;;;;;;;;5020296;28;20012;-60
2022/08/06 16:45:53;;;;;;;;;;;;;;;;;;5011732;28;19976;-60